Time;durP1;ratioP1;P1;durP2;ratioP2;P2;SDS_P1;SDS_P2;PMS_P1;PMS_P2;Temp;Humidity;BMP_temperature;BMP_pressure;BME280_temperature;BME280_humidity;BME280_pressure;Samples;Min_cycle;Max_cycle;Signal;HPM_P1;HPM_P2
2022/01/09 00:00:43;;;;;;;37.53;15.07;;;1.00;99.90;;;;;;4992242;28;20030;-83
2022/01/09 00:03:10;;;;;;;32.35;14.73;;;1.00;99.90;;;;;;4986972;28;20038;-83
2022/01/09 00:05:36;;;;;;;28.95;13.93;;;1.00;99.90;;;;;;4985306;28;20050;-81
2022/01/09 00:08:03;;;;;;;34.08;14.18;;;1.00;99.90;;;;;;4986516;28;20049;-82
2022/01/09 00:10:30;;;;;;;33.63;14.23;;;0.90;99.90;;;;;;4983623;28;20030;-82
2022/01/09 00:12:58;;;;;;;34.38;13.95;;;0.90;99.90;;;;;;4983929;28;20037;-82
2022/01/09 00:15:24;;;;;;;31.30;14.90;;;0.90;99.90;;;;;;4983643;28;20418;-81
2022/01/09 00:17:50;;;;;;;31.58;14.73;;;0.90;99.90;;;;;;4983610;28;20035;-81
2022/01/09 00:20:16;;;;;;;29.98;14.50;;;0.90;99.90;;;;;;4984762;28;20038;-81
2022/01/09 00:22:46;;;;;;;30.65;14.10;;;0.90;99.90;;;;;;4987237;28;20503;-83
2022/01/09 00:25:15;;;;;;;35.67;15.43;;;0.80;99.90;;;;;;4995405;28;20052;-81
2022/01/09 00:27:41;;;;;;;33.90;14.75;;;0.70;99.90;;;;;;4988567;28;20037;-80
2022/01/09 00:30:09;;;;;;;30.92;14.25;;;0.60;99.90;;;;;;4985772;28;20054;-82
2022/01/09 00:32:36;;;;;;;38.83;15.73;;;0.50;99.90;;;;;;4994936;28;20031;-81
2022/01/09 00:35:03;;;;;;;30.25;14.35;;;0.40;99.90;;;;;;4997225;28;20023;-81
2022/01/09 00:37:29;;;;;;;30.77;13.50;;;0.40;99.90;;;;;;4995319;28;20034;-81
2022/01/09 00:39:54;;;;;;;31.65;14.93;;;0.40;99.90;;;;;;4993006;28;20375;-80
2022/01/09 00:42:20;;;;;;;29.85;14.80;;;0.40;99.90;;;;;;4997264;28;20034;-79
2022/01/09 00:44:46;;;;;;;34.03;14.85;;;0.40;99.90;;;;;;4996325;28;20079;-83
2022/01/09 00:47:12;;;;;;;29.23;14.05;;;0.40;99.90;;;;;;4994662;28;20050;-79
2022/01/09 00:49:38;;;;;;;36.33;15.23;;;0.30;99.90;;;;;;4996796;28;20084;-81
2022/01/09 00:52:04;;;;;;;32.65;13.95;;;0.30;99.90;;;;;;4998251;28;20030;-82
2022/01/09 00:54:30;;;;;;;33.20;14.75;;;0.30;99.90;;;;;;5000760;28;20043;-80
2022/01/09 00:56:56;;;;;;;38.08;16.17;;;0.20;99.90;;;;;;4999947;28;20045;-80
2022/01/09 00:59:22;;;;;;;39.95;16.92;;;0.10;99.90;;;;;;5000923;28;20038;-81
2022/01/09 01:01:49;;;;;;;36.78;16.58;;;0.00;99.90;;;;;;5000511;28;20011;-80
2022/01/09 01:04:14;;;;;;;40.97;16.10;;;-0.10;99.90;;;;;;5000692;28;20062;-79
2022/01/09 01:06:40;;;;;;;38.33;16.65;;;-0.20;99.90;;;;;;5000165;28;20054;-80
2022/01/09 01:09:06;;;;;;;39.08;15.70;;;-0.20;99.90;;;;;;5000494;28;20079;-79
2022/01/09 01:11:32;;;;;;;39.80;15.80;;;-0.20;99.90;;;;;;4999133;28;20058;-80
2022/01/09 01:13:59;;;;;;;39.05;16.85;;;-0.20;99.90;;;;;;4994472;28;20030;-82
2022/01/09 01:16:25;;;;;;;45.38;17.83;;;-0.20;99.90;;;;;;4994957;28;20057;-82
2022/01/09 01:18:54;;;;;;;42.22;16.92;;;-0.30;99.90;;;;;;4996978;28;20022;-80
2022/01/09 01:21:19;;;;;;;40.75;18.15;;;-0.30;99.90;;;;;;4998523;28;20011;-81
2022/01/09 01:23:45;;;;;;;42.80;17.35;;;-0.40;99.90;;;;;;4996090;28;20058;-80
2022/01/09 01:26:11;;;;;;;41.28;17.27;;;-0.40;99.90;;;;;;4990636;28;20422;-82
2022/01/09 01:28:38;;;;;;;48.20;17.25;;;-0.50;99.90;;;;;;4991372;28;20023;-81
2022/01/09 01:31:04;;;;;;;39.75;18.67;;;-0.50;99.90;;;;;;4973529;28;20034;-79
2022/01/09 01:33:30;;;;;;;48.85;19.63;;;-0.60;99.90;;;;;;4990565;28;20062;-79
2022/01/09 01:35:56;;;;;;;43.67;19.45;;;-0.60;99.90;;;;;;4989683;28;20051;-81
2022/01/09 01:38:21;;;;;;;41.85;18.42;;;-0.70;99.90;;;;;;4990615;28;20505;-82
2022/01/09 01:40:47;;;;;;;41.00;18.20;;;-0.70;99.90;;;;;;4993157;28;20031;-80
2022/01/09 01:43:13;;;;;;;43.65;18.45;;;-0.90;99.90;;;;;;4991853;28;20030;-83
2022/01/09 01:45:39;;;;;;;44.17;17.80;;;-1.00;99.90;;;;;;4986575;28;20027;-80
2022/01/09 01:48:06;;;;;;;42.65;18.40;;;-1.10;99.90;;;;;;4986986;28;20513;-80
2022/01/09 01:50:38;;;;;;;40.00;18.35;;;-1.10;99.90;;;;;;4995277;28;20011;-81
2022/01/09 01:53:12;;;;;;;48.92;18.95;;;-1.10;99.90;;;;;;5000018;28;20035;-79
2022/01/09 01:55:40;;;;;;;45.92;18.67;;;-1.10;99.90;;;;;;5000078;28;20038;-79
2022/01/09 01:58:08;;;;;;;43.08;19.20;;;-1.30;99.90;;;;;;5000434;28;20027;-80
2022/01/09 02:00:34;;;;;;;49.47;20.00;;;-1.40;99.90;;;;;;4999691;28;20062;-80
2022/01/09 02:03:00;;;;;;;44.33;19.58;;;-1.40;99.90;;;;;;4999513;28;20015;-79
2022/01/09 02:05:27;;;;;;;44.30;19.85;;;-1.40;99.90;;;;;;4999859;28;20025;-80
2022/01/09 02:07:53;;;;;;;41.85;18.60;;;-1.40;99.90;;;;;;4999825;28;20011;-82
2022/01/09 02:10:19;;;;;;;46.25;19.63;;;-1.40;99.90;;;;;;4999683;28;20054;-79
2022/01/09 02:12:45;;;;;;;45.05;18.67;;;-1.30;99.90;;;;;;4999203;28;20027;-80
2022/01/09 02:15:32;;;;;;;46.40;19.10;;;-1.40;99.90;;;;;;5000031;28;20029;-79
2022/01/09 02:18:00;;;;;;;42.50;19.02;;;-1.50;99.90;;;;;;4999895;28;20050;-81
2022/01/09 02:20:27;;;;;;;45.50;20.00;;;-1.40;99.90;;;;;;4996874;28;20062;-79
2022/01/09 02:22:53;;;;;;;45.33;19.10;;;-1.40;99.90;;;;;;4999902;28;20086;-79
2022/01/09 02:25:19;;;;;;;47.33;19.52;;;-1.40;99.90;;;;;;4999618;28;20029;-79
2022/01/09 02:27:44;;;;;;;46.80;20.35;;;-1.40;99.90;;;;;;4999702;28;20041;-79
2022/01/09 02:30:11;;;;;;;42.47;19.63;;;-1.50;99.90;;;;;;4999005;28;20026;-79
2022/01/09 02:32:37;;;;;;;50.92;20.67;;;-1.50;99.90;;;;;;4999060;28;20026;-80
2022/01/09 02:35:03;;;;;;;46.08;19.33;;;-1.50;99.90;;;;;;4998493;28;20023;-81
2022/01/09 02:37:29;;;;;;;45.53;20.02;;;-1.50;99.90;;;;;;4990334;28;20058;-80
2022/01/09 02:39:54;;;;;;;46.83;19.75;;;-1.50;99.90;;;;;;4990420;28;20046;-81
2022/01/09 02:42:24;;;;;;;46.15;19.95;;;-1.50;99.90;;;;;;4993711;28;20039;-80
2022/01/09 02:44:51;;;;;;;49.10;21.25;;;-1.40;99.90;;;;;;4994917;28;20031;-82
2022/01/09 02:47:17;;;;;;;44.38;18.80;;;-1.50;99.90;;;;;;4985410;28;20054;-82
2022/01/09 02:49:48;;;;;;;45.00;21.05;;;-1.50;99.90;;;;;;4987936;28;20035;-81
2022/01/09 02:52:28;;;;;;;43.25;19.83;;;-1.60;99.90;;;;;;4989056;28;20089;-82
2022/01/09 02:57:32;;;;;;;51.63;20.13;;;-1.50;99.90;;;;;;4989244;28;20026;-80
2022/01/09 02:59:58;;;;;;;51.75;20.70;;;-1.50;99.90;;;;;;4995250;28;20115;-81
2022/01/09 03:02:24;;;;;;;56.92;21.80;;;-1.60;99.90;;;;;;4986868;28;20050;-80
2022/01/09 03:04:50;;;;;;;53.08;21.15;;;-1.60;99.90;;;;;;4988444;28;20442;-81
2022/01/09 03:07:16;;;;;;;47.53;20.88;;;-1.60;99.90;;;;;;4987970;28;20066;-83
2022/01/09 03:09:42;;;;;;;44.78;20.42;;;-1.70;99.90;;;;;;4986443;28;20026;-81
2022/01/09 03:12:11;;;;;;;49.33;21.00;;;-1.60;99.90;;;;;;4986954;28;20503;-81
2022/01/09 03:14:37;;;;;;;50.90;21.50;;;-1.60;99.90;;;;;;4984611;28;20023;-82
2022/01/09 03:17:04;;;;;;;50.03;21.67;;;-1.70;99.90;;;;;;4985680;28;20483;-81
2022/01/09 03:19:29;;;;;;;48.92;20.75;;;-1.70;99.90;;;;;;4984496;28;20019;-82
2022/01/09 03:21:55;;;;;;;53.83;21.73;;;-1.80;99.90;;;;;;4988238;28;20534;-81
2022/01/09 03:24:21;;;;;;;50.55;21.58;;;-1.80;99.90;;;;;;4990439;28;20115;-82
2022/01/09 03:26:47;;;;;;;48.47;22.13;;;-1.90;99.90;;;;;;4990773;28;20019;-80
2022/01/09 03:29:13;;;;;;;46.28;21.58;;;-2.00;99.90;;;;;;4988255;28;20041;-82
2022/01/09 03:31:38;;;;;;;52.08;21.40;;;-2.00;99.90;;;;;;4987711;28;20054;-81
2022/01/09 03:34:04;;;;;;;51.22;20.98;;;-2.10;99.90;;;;;;4989196;28;20089;-80
2022/01/09 03:36:30;;;;;;;48.58;20.48;;;-2.10;99.90;;;;;;4988645;28;20023;-79
2022/01/09 03:38:56;;;;;;;52.75;21.73;;;-2.00;99.90;;;;;;5072156;23;20094;-85
2022/01/09 03:41:21;;;;;;;46.03;20.58;;;-2.00;99.90;;;;;;4978644;28;20045;-85
2022/01/09 03:43:48;;;;;;;50.90;21.60;;;-2.00;99.90;;;;;;4980404;28;20021;-84
2022/01/09 03:46:14;;;;;;;49.00;20.08;;;-2.10;99.90;;;;;;4996965;28;20035;-86
2022/01/09 03:48:40;;;;;;;55.88;20.60;;;-2.10;99.90;;;;;;4980511;28;20058;-84
2022/01/09 03:51:06;;;;;;;48.58;20.33;;;-2.10;99.90;;;;;;4961042;28;20035;-84
2022/01/09 03:53:32;;;;;;;45.03;20.52;;;-2.10;99.90;;;;;;4958792;29;20043;-84
2022/01/09 03:56:00;;;;;;;44.45;21.13;;;-2.10;99.90;;;;;;4960914;28;20059;-85
2022/01/09 03:58:25;;;;;;;48.35;20.85;;;-2.10;99.90;;;;;;4977450;28;20059;-83
2022/01/09 04:00:51;;;;;;;47.75;21.35;;;-2.00;99.90;;;;;;4977734;28;20083;-84
2022/01/09 04:03:17;;;;;;;41.83;20.05;;;-2.00;99.90;;;;;;4959515;29;20027;-86
2022/01/09 04:05:43;;;;;;;48.45;20.75;;;-2.00;99.90;;;;;;4960891;29;20063;-83
2022/01/09 04:08:08;;;;;;;44.42;21.17;;;-2.00;99.90;;;;;;4961311;28;20019;-83
2022/01/09 04:10:40;;;;;;;46.25;22.20;;;-2.00;99.90;;;;;;4962542;28;20087;-84
2022/01/09 04:13:07;;;;;;;50.53;21.63;;;-2.00;99.90;;;;;;4962681;28;20035;-82
2022/01/09 04:15:33;;;;;;;47.83;21.23;;;-2.00;99.90;;;;;;4979149;28;20047;-83
2022/01/09 04:18:02;;;;;;;46.75;21.00;;;-2.00;99.90;;;;;;4979032;28;20027;-83
2022/01/09 04:20:30;;;;;;;50.28;21.20;;;-2.00;99.90;;;;;;4979057;28;20051;-83
2022/01/09 04:22:57;;;;;;;46.45;21.38;;;-1.90;99.90;;;;;;4979184;28;20028;-83
2022/01/09 04:25:23;;;;;;;49.53;21.77;;;-1.90;99.90;;;;;;4979240;28;20054;-84
2022/01/09 04:27:51;;;;;;;45.10;19.67;;;-1.90;99.90;;;;;;4982466;28;20050;-82
2022/01/09 04:30:18;;;;;;;45.72;19.85;;;-1.90;99.90;;;;;;4966022;28;20042;-83
2022/01/09 04:32:45;;;;;;;42.97;17.90;;;-1.90;99.90;;;;;;4982373;28;20122;-84
2022/01/09 04:35:12;;;;;;;45.58;20.08;;;-1.90;99.90;;;;;;4982547;28;20024;-84
2022/01/09 04:37:39;;;;;;;49.35;19.48;;;-1.90;99.90;;;;;;4965120;28;20096;-84
2022/01/09 04:40:08;;;;;;;40.38;18.88;;;-2.00;99.90;;;;;;4944631;29;20121;-86
2022/01/09 04:42:41;;;;;;;43.20;19.38;;;-2.00;99.90;;;;;;4958092;29;20103;-85
2022/01/09 04:45:08;;;;;;;47.45;20.60;;;-2.00;99.90;;;;;;4940805;29;20090;-86
2022/01/09 04:47:34;;;;;;;43.63;19.35;;;-2.00;99.90;;;;;;4957360;29;20031;-86
2022/01/09 04:50:01;;;;;;;45.97;20.25;;;-2.00;99.90;;;;;;4965206;28;20027;-85
2022/01/09 04:52:33;;;;;;;39.33;18.85;;;-2.00;99.90;;;;;;4965900;28;20083;-83
2022/01/09 04:54:59;;;;;;;41.22;19.17;;;-2.00;99.90;;;;;;4966056;28;20063;-82
2022/01/09 04:57:25;;;;;;;44.63;19.75;;;-2.00;99.90;;;;;;4965843;28;20045;-83
2022/01/09 04:59:51;;;;;;;43.05;19.88;;;-1.90;99.90;;;;;;4965471;28;20054;-83
2022/01/09 05:02:17;;;;;;;44.33;18.73;;;-1.90;99.90;;;;;;4981893;28;20216;-85
2022/01/09 05:04:43;;;;;;;43.15;19.02;;;-1.90;99.90;;;;;;4982236;28;20020;-82
2022/01/09 05:07:09;;;;;;;49.50;20.60;;;-1.90;99.90;;;;;;4965500;28;20042;-84
2022/01/09 05:09:35;;;;;;;46.30;19.45;;;-2.00;99.90;;;;;;4965570;28;20020;-82
2022/01/09 05:12:01;;;;;;;48.47;18.05;;;-2.00;99.90;;;;;;4982132;28;20026;-84
2022/01/09 05:14:27;;;;;;;40.03;19.17;;;-2.00;99.90;;;;;;4981144;28;20031;-85
2022/01/09 05:16:53;;;;;;;45.10;19.15;;;-1.90;99.90;;;;;;4964744;28;20087;-83
2022/01/09 05:19:28;;;;;;;38.58;19.27;;;-2.00;99.90;;;;;;4981898;28;20019;-82
2022/01/09 05:21:56;;;;;;;48.00;19.65;;;-2.00;99.90;;;;;;4981669;28;20042;-84
2022/01/09 05:24:22;;;;;;;38.95;18.27;;;-2.00;99.90;;;;;;4964785;28;20038;-84
2022/01/09 05:26:48;;;;;;;41.30;18.45;;;-2.00;99.90;;;;;;4981101;28;20071;-84
2022/01/09 05:29:14;;;;;;;43.70;19.70;;;-2.00;99.90;;;;;;4964505;28;20027;-84
2022/01/09 05:31:40;;;;;;;42.90;19.17;;;-2.00;99.90;;;;;;4981098;28;20095;-83
2022/01/09 05:34:06;;;;;;;49.78;19.77;;;-2.00;99.90;;;;;;4981123;28;20047;-80
2022/01/09 05:36:32;;;;;;;43.90;20.23;;;-1.90;99.90;;;;;;4962520;28;20098;-84
2022/01/09 05:38:58;;;;;;;51.67;20.63;;;-2.00;99.90;;;;;;4955884;28;20035;-87
2022/01/09 05:41:25;;;;;;;46.97;20.35;;;-2.00;99.90;;;;;;4971599;29;20107;-86
2022/01/09 05:43:51;;;;;;;40.35;19.02;;;-2.00;99.90;;;;;;4970582;29;20023;-85
2022/01/09 05:46:17;;;;;;;41.88;18.10;;;-1.90;99.90;;;;;;4958652;29;20043;-84
2022/01/09 05:48:43;;;;;;;42.90;19.70;;;-1.90;99.90;;;;;;4958513;28;20025;-84
2022/01/09 05:51:09;;;;;;;47.72;19.85;;;-1.90;99.90;;;;;;4956771;29;20039;-83
2022/01/09 05:53:34;;;;;;;43.85;19.85;;;-2.00;99.90;;;;;;4959147;28;20035;-84
2022/01/09 05:56:00;;;;;;;47.45;20.75;;;-1.90;99.90;;;;;;4978365;28;20042;-83
2022/01/09 05:58:26;;;;;;;46.53;19.95;;;-1.90;99.90;;;;;;4977926;28;20023;-85
2022/01/09 06:00:52;;;;;;;45.20;19.60;;;-1.90;99.90;;;;;;4978040;28;20050;-84
2022/01/09 06:03:18;;;;;;;44.42;19.30;;;-1.90;99.90;;;;;;4945834;28;20023;-83
2022/01/09 06:05:44;;;;;;;46.17;20.42;;;-1.90;99.90;;;;;;4978993;28;20030;-84
2022/01/09 06:08:09;;;;;;;41.20;18.65;;;-1.90;99.90;;;;;;4979104;28;20043;-86
2022/01/09 06:10:35;;;;;;;45.25;20.92;;;-1.90;99.90;;;;;;4969436;28;20038;-86
2022/01/09 06:13:01;;;;;;;40.85;18.25;;;-1.90;99.90;;;;;;4948097;29;20031;-87
2022/01/09 06:15:27;;;;;;;50.05;19.98;;;-1.90;99.90;;;;;;4947224;29;20034;-87
2022/01/09 06:17:53;;;;;;;49.45;20.27;;;-1.90;99.90;;;;;;4967128;29;20027;-87
2022/01/09 06:20:18;;;;;;;49.95;20.45;;;-1.90;99.90;;;;;;4976894;28;20046;-85
2022/01/09 06:22:45;;;;;;;50.28;20.58;;;-1.90;99.90;;;;;;4960047;29;20032;-86
2022/01/09 06:25:12;;;;;;;44.00;20.00;;;-1.90;99.90;;;;;;4963277;29;20045;-86
2022/01/09 06:27:38;;;;;;;47.13;19.70;;;-1.80;99.90;;;;;;4946836;29;20021;-86
2022/01/09 06:30:07;;;;;;;46.90;19.33;;;-1.80;99.90;;;;;;4947111;29;20032;-85
2022/01/09 06:32:33;;;;;;;45.22;20.67;;;-1.90;99.90;;;;;;4946013;29;20089;-88
2022/01/09 06:34:59;;;;;;;39.55;18.33;;;-1.80;99.90;;;;;;4946448;29;20035;-86
2022/01/09 06:37:24;;;;;;;39.42;19.13;;;-1.80;99.90;;;;;;4964325;29;20055;-86
2022/01/09 06:39:50;;;;;;;50.58;20.30;;;-1.80;99.90;;;;;;4928307;28;1120544;-84
2022/01/09 06:42:16;;;;;;;46.22;19.52;;;-1.80;99.90;;;;;;4951324;29;20034;-86
2022/01/09 06:44:42;;;;;;;44.58;19.33;;;-1.80;99.90;;;;;;4951330;29;20039;-87
2022/01/09 06:47:08;;;;;;;44.75;19.17;;;-1.80;99.90;;;;;;4955265;29;20035;-87
2022/01/09 06:49:35;;;;;;;44.05;19.63;;;-1.70;99.90;;;;;;4955393;29;20031;-86
2022/01/09 06:52:01;;;;;;;42.38;18.85;;;-1.70;99.90;;;;;;4972856;29;20054;-84
2022/01/09 06:54:27;;;;;;;44.65;19.60;;;-1.70;99.90;;;;;;4972788;29;20035;-86
2022/01/09 06:56:53;;;;;;;40.05;18.48;;;-1.70;99.90;;;;;;4974142;29;20019;-86
2022/01/09 06:59:19;;;;;;;44.35;19.50;;;-1.70;99.90;;;;;;4958139;29;20463;-84
2022/01/09 07:01:45;;;;;;;46.13;19.30;;;-1.70;99.90;;;;;;4975987;29;20030;-85
2022/01/09 07:04:11;;;;;;;45.72;21.27;;;-1.60;99.90;;;;;;4977422;29;20041;-86
2022/01/09 07:06:37;;;;;;;43.05;20.10;;;-1.60;99.90;;;;;;4978365;28;20055;-84
2022/01/09 07:09:04;;;;;;;50.13;20.77;;;-1.60;99.90;;;;;;4962348;28;20118;-85
2022/01/09 07:11:30;;;;;;;45.30;20.55;;;-1.70;99.90;;;;;;4958497;29;20035;-87
2022/01/09 07:13:56;;;;;;;53.00;21.17;;;-1.70;99.90;;;;;;4975598;29;20023;-86
2022/01/09 07:16:22;;;;;;;49.50;20.25;;;-1.60;99.90;;;;;;4961100;28;20027;-83
2022/01/09 07:18:48;;;;;;;47.40;20.17;;;-1.50;99.90;;;;;;4978781;28;20019;-85
2022/01/09 07:21:14;;;;;;;49.72;22.70;;;-1.40;99.90;;;;;;4962028;28;20030;-84
2022/01/09 07:23:40;;;;;;;51.00;21.83;;;-1.40;99.90;;;;;;4962256;29;20039;-87
2022/01/09 07:26:06;;;;;;;51.40;21.90;;;-1.40;99.90;;;;;;4978796;28;20019;-87
2022/01/09 07:28:34;;;;;;;51.42;21.20;;;-1.40;99.90;;;;;;4991332;28;20380;-85
2022/01/09 07:31:00;;;;;;;50.53;21.27;;;-1.40;99.90;;;;;;4989045;28;20112;-86
2022/01/09 07:33:26;;;;;;;52.95;21.27;;;-1.30;99.90;;;;;;4975694;28;20019;-88
2022/01/09 07:35:52;;;;;;;52.63;21.42;;;-1.20;99.90;;;;;;4995902;28;20070;-83
2022/01/09 07:38:18;;;;;;;43.53;20.80;;;-1.20;99.90;;;;;;4979518;28;20007;-82
2022/01/09 07:40:44;;;;;;;46.47;22.30;;;-1.10;99.90;;;;;;4979226;28;20031;-85
2022/01/09 07:43:10;;;;;;;49.38;22.05;;;-1.10;99.90;;;;;;4978920;28;20111;-83
2022/01/09 07:45:35;;;;;;;53.85;24.10;;;-1.10;99.90;;;;;;4963052;28;20019;-82
2022/01/09 07:48:02;;;;;;;51.90;23.02;;;-1.20;99.90;;;;;;4963194;28;20019;-85
2022/01/09 07:50:30;;;;;;;53.17;23.23;;;-1.30;99.90;;;;;;4979220;28;20023;-86
2022/01/09 07:52:56;;;;;;;56.90;23.88;;;-1.30;99.90;;;;;;4975647;28;20090;-86
2022/01/09 07:55:25;;;;;;;50.05;22.27;;;-1.30;99.90;;;;;;4955745;28;20043;-83
2022/01/09 07:58:09;;;;;;;51.67;22.00;;;-1.20;99.90;;;;;;4993146;28;20034;-85
2022/01/09 08:00:35;;;;;;;53.47;23.85;;;-1.20;99.90;;;;;;4981996;28;20063;-85
2022/01/09 08:03:01;;;;;;;51.92;23.42;;;-1.30;99.90;;;;;;4983982;28;20200;-85
2022/01/09 08:05:28;;;;;;;46.92;23.08;;;-1.20;99.90;;;;;;4997960;28;20074;-83
2022/01/09 08:07:54;;;;;;;49.05;22.02;;;-1.10;99.90;;;;;;5002560;28;20034;-82
2022/01/09 08:10:21;;;;;;;52.80;24.23;;;-1.00;99.90;;;;;;4982843;28;20120;-84
2022/01/09 08:12:47;;;;;;;50.28;22.70;;;-0.90;99.90;;;;;;4956931;29;20042;-88
2022/01/09 08:15:12;;;;;;;54.08;22.02;;;-0.90;99.90;;;;;;4974802;29;20058;-84
2022/01/09 08:17:41;;;;;;;51.08;22.85;;;-0.90;99.90;;;;;;4967488;29;20015;-85
2022/01/09 08:20:08;;;;;;;56.17;25.30;;;-0.90;99.90;;;;;;4970454;28;20098;-87
2022/01/09 08:22:36;;;;;;;51.08;22.10;;;-1.00;99.90;;;;;;4949020;29;20024;-87
2022/01/09 08:25:03;;;;;;;50.22;22.25;;;-0.90;99.90;;;;;;4933417;29;20028;-86
2022/01/09 08:27:29;;;;;;;43.60;21.13;;;-0.80;99.90;;;;;;4949485;29;20080;-85
2022/01/09 08:29:57;;;;;;;45.95;21.73;;;-0.70;99.90;;;;;;4934736;29;20046;-90
2022/01/09 08:32:23;;;;;;;52.03;23.42;;;-0.70;99.90;;;;;;4935677;29;20075;-86
2022/01/09 08:34:48;;;;;;;50.38;23.55;;;-0.70;99.90;;;;;;4931149;29;20107;-86
2022/01/09 08:37:14;;;;;;;50.60;22.75;;;-0.60;99.90;;;;;;4949763;29;20028;-86
2022/01/09 08:39:41;;;;;;;53.78;21.90;;;-0.60;99.90;;;;;;4950444;29;20035;-85
2022/01/09 08:42:08;;;;;;;51.30;23.45;;;-0.60;99.90;;;;;;4952635;29;20024;-86
2022/01/09 08:44:34;;;;;;;51.38;24.35;;;-0.60;99.90;;;;;;4945796;29;20408;-86
2022/01/09 08:46:59;;;;;;;48.88;23.52;;;-0.50;99.90;;;;;;4931122;29;20119;-86
2022/01/09 08:49:25;;;;;;;52.92;23.58;;;-0.50;99.90;;;;;;4928495;29;20028;-85
2022/01/09 08:51:52;;;;;;;48.10;22.55;;;-0.50;99.90;;;;;;4944852;29;20079;-87
2022/01/09 08:54:18;;;;;;;48.55;22.60;;;-0.50;99.90;;;;;;4928562;29;20027;-87
2022/01/09 08:56:44;;;;;;;50.58;22.00;;;-0.40;99.90;;;;;;4945992;29;20357;-86
2022/01/09 08:59:10;;;;;;;52.42;23.73;;;-0.40;99.90;;;;;;4933360;29;20028;-87
2022/01/09 09:01:35;;;;;;;76.43;33.30;;;-0.30;99.90;;;;;;4954953;29;20075;-85
2022/01/09 09:04:01;;;;;;;52.90;22.83;;;-0.20;99.90;;;;;;4957306;29;20055;-85
2022/01/09 09:06:27;;;;;;;47.25;20.60;;;-0.20;99.90;;;;;;4955571;29;20070;-85
2022/01/09 09:08:53;;;;;;;55.47;22.73;;;-0.20;99.90;;;;;;4954942;29;20024;-85
2022/01/09 09:11:18;;;;;;;50.10;22.38;;;-0.20;99.90;;;;;;4938824;29;20055;-85
2022/01/09 09:13:44;;;;;;;52.80;21.13;;;-0.20;99.90;;;;;;4955615;29;20040;-87
2022/01/09 09:16:10;;;;;;;50.25;22.25;;;-0.20;99.90;;;;;;4939103;29;20059;-85
2022/01/09 09:18:36;;;;;;;45.55;21.33;;;-0.20;99.90;;;;;;4955174;29;20051;-85
2022/01/09 09:21:03;;;;;;;49.15;22.45;;;-0.10;99.90;;;;;;4954539;29;20050;-85
2022/01/09 09:23:29;;;;;;;50.20;22.35;;;-0.10;99.90;;;;;;4954551;29;20059;-85
2022/01/09 09:25:54;;;;;;;52.35;22.45;;;0.00;99.90;;;;;;4952561;29;20028;-86
2022/01/09 09:28:20;;;;;;;44.75;20.23;;;0.00;99.90;;;;;;4934298;29;20118;-84
2022/01/09 09:30:46;;;;;;;41.40;20.35;;;0.10;99.90;;;;;;4933722;29;20028;-84
2022/01/09 09:33:12;;;;;;;38.45;18.77;;;0.20;99.90;;;;;;4948396;29;20042;-84
2022/01/09 09:35:38;;;;;;;48.45;20.83;;;0.20;99.90;;;;;;4946914;29;20087;-86
2022/01/09 09:38:04;;;;;;;50.53;22.30;;;0.10;99.90;;;;;;4945921;29;20432;-86
2022/01/09 09:40:30;;;;;;;49.65;21.80;;;-0.10;99.90;;;;;;5011739;23;20093;-82
2022/01/09 09:42:56;;;;;;;43.72;22.13;;;-0.20;99.90;;;;;;5030880;28;20093;-83
2022/01/09 09:45:25;;;;;;;47.55;21.70;;;0.00;99.90;;;;;;5030255;28;20022;-84
2022/01/09 09:47:52;;;;;;;43.22;20.85;;;0.00;99.90;;;;;;5013743;28;20038;-84
2022/01/09 09:50:19;;;;;;;47.00;21.50;;;0.10;99.90;;;;;;5031307;28;20018;-84
2022/01/09 09:52:47;;;;;;;45.88;20.92;;;0.20;99.90;;;;;;5034269;28;20042;-85
2022/01/09 09:55:13;;;;;;;43.15;20.63;;;0.10;99.90;;;;;;5018612;28;20040;-84
2022/01/09 09:57:40;;;;;;;48.42;22.23;;;0.20;99.90;;;;;;5036985;28;20034;-84
2022/01/09 10:00:14;;;;;;;46.97;22.02;;;0.20;99.90;;;;;;5039155;28;20037;-85
2022/01/09 10:02:50;;;;;;;47.42;21.58;;;0.20;99.90;;;;;;5039109;28;20026;-84
2022/01/09 10:05:32;;;;;;;53.58;22.42;;;0.10;99.90;;;;;;5038652;28;20038;-83
2022/01/09 10:08:16;;;;;;;47.78;22.70;;;0.10;99.90;;;;;;5039116;28;20014;-84
2022/01/09 10:10:44;;;;;;;52.20;22.17;;;0.20;99.90;;;;;;5039087;28;20034;-84
2022/01/09 10:13:19;;;;;;;45.60;20.83;;;0.20;99.90;;;;;;5022006;28;20060;-84
2022/01/09 10:15:47;;;;;;;50.75;22.25;;;0.30;99.90;;;;;;5039031;28;20022;-83
2022/01/09 10:18:13;;;;;;;50.78;21.65;;;0.30;99.90;;;;;;5021863;28;20036;-84
2022/01/09 10:20:39;;;;;;;51.22;23.58;;;0.40;99.90;;;;;;5038158;28;20014;-83
2022/01/09 10:23:05;;;;;;;49.72;22.52;;;0.50;99.90;;;;;;5038382;28;20038;-83
2022/01/09 10:25:37;;;;;;;50.30;22.45;;;0.50;99.90;;;;;;5038419;28;20013;-85
2022/01/09 10:28:16;;;;;;;50.22;21.58;;;0.60;99.90;;;;;;5021994;28;20046;-83
2022/01/09 10:30:48;;;;;;;44.20;21.42;;;0.80;99.90;;;;;;5038073;28;20052;-84
2022/01/09 10:33:17;;;;;;;50.90;22.55;;;0.90;99.90;;;;;;5038602;28;20026;-83
2022/01/09 10:35:45;;;;;;;55.50;25.20;;;0.90;99.90;;;;;;5037860;28;20036;-83
2022/01/09 10:38:22;;;;;;;48.28;22.25;;;0.80;99.90;;;;;;5038653;28;20025;-84
2022/01/09 10:40:57;;;;;;;62.63;26.75;;;0.80;99.90;;;;;;5033064;28;20485;-85
2022/01/09 10:43:34;;;;;;;48.83;23.25;;;0.80;99.90;;;;;;5032815;28;20026;-85
2022/01/09 10:46:01;;;;;;;66.13;24.35;;;0.70;99.90;;;;;;5030286;28;20033;-85
2022/01/09 10:48:47;;;;;;;56.85;24.88;;;0.50;99.90;;;;;;5026535;28;20060;-84
2022/01/09 10:51:13;;;;;;;52.33;23.23;;;0.70;99.90;;;;;;5024803;28;20118;-86
2022/01/09 10:53:41;;;;;;;50.75;21.85;;;0.90;99.90;;;;;;5032500;28;20030;-85
2022/01/09 10:56:19;;;;;;;45.88;21.42;;;1.00;99.90;;;;;;5036048;28;20088;-86
2022/01/09 10:58:48;;;;;;;47.47;21.45;;;1.20;99.90;;;;;;5037955;28;20037;-85
2022/01/09 11:01:31;;;;;;;47.65;22.02;;;1.10;99.90;;;;;;5028941;28;20018;-87
2022/01/09 11:04:07;;;;;;;48.70;21.80;;;1.10;99.90;;;;;;5021723;28;20026;-85
2022/01/09 11:06:35;;;;;;;48.13;21.65;;;1.30;99.90;;;;;;5038550;28;20029;-87
2022/01/09 11:09:03;;;;;;;46.63;22.50;;;1.40;99.90;;;;;;5038339;28;20041;-86
2022/01/09 11:14:02;;;;;;;45.90;20.83;;;1.40;99.90;;;;;;5037563;28;20042;-88
2022/01/09 11:16:41;;;;;;;50.35;22.35;;;1.20;99.90;;;;;;5037317;28;20028;-86
2022/01/09 11:19:15;;;;;;;46.58;21.67;;;1.00;99.90;;;;;;5037473;28;20022;-89
2022/01/09 11:21:59;;;;;;;49.55;22.50;;;1.20;99.90;;;;;;5038175;28;20034;-87
2022/01/09 11:24:34;;;;;;;41.87;19.73;;;1.20;99.90;;;;;;5037389;28;20042;-85
2022/01/09 11:27:16;;;;;;;51.80;21.60;;;1.30;99.90;;;;;;5037493;28;20054;-87
2022/01/09 11:30:07;;;;;;;49.33;22.00;;;1.40;99.90;;;;;;5033116;28;20022;-88
2022/01/09 11:33:10;;;;;;;44.95;20.55;;;1.40;99.90;;;;;;5036974;28;20048;-87
2022/01/09 11:36:03;;;;;;;50.17;21.13;;;1.30;99.90;;;;;;5030496;28;20128;-87
2022/01/09 11:39:12;;;;;;;44.75;19.60;;;1.40;99.90;;;;;;5034301;28;20037;-87
2022/01/09 11:41:40;;;;;;;45.13;20.98;;;1.40;99.90;;;;;;5034190;28;20057;-87
2022/01/09 11:44:14;;;;;;;52.40;21.52;;;1.40;99.90;;;;;;5017428;28;20006;-86
2022/01/09 11:47:09;;;;;;;44.90;21.70;;;1.50;99.90;;;;;;5027048;28;20044;-86
2022/01/09 11:49:59;;;;;;;46.50;20.73;;;1.70;99.90;;;;;;5038417;28;20037;-88
2022/01/09 11:52:27;;;;;;;41.40;19.63;;;1.50;99.90;;;;;;5043486;28;20048;-88
2022/01/09 11:54:56;;;;;;;43.55;20.92;;;1.60;99.90;;;;;;5052581;28;20169;-88
2022/01/09 11:57:41;;;;;;;40.38;19.83;;;1.60;99.90;;;;;;5052206;28;20025;-87
2022/01/09 12:00:28;;;;;;;41.75;20.40;;;1.60;99.90;;;;;;5052894;28;20063;-88
2022/01/09 12:02:54;;;;;;;42.28;19.77;;;1.60;99.90;;;;;;5051322;28;20037;-88
2022/01/09 12:05:19;;;;;;;47.47;20.55;;;1.50;99.90;;;;;;5053590;28;20014;-89
2022/01/09 12:07:48;;;;;;;45.60;19.05;;;1.60;99.90;;;;;;5055904;28;20085;-87
2022/01/09 12:10:30;;;;;;;45.17;19.48;;;1.50;99.90;;;;;;5051809;28;20025;-87
2022/01/09 12:12:57;;;;;;;43.25;19.63;;;1.50;99.90;;;;;;5037952;28;20056;-87
2022/01/09 12:15:40;;;;;;;45.28;19.92;;;1.70;99.90;;;;;;5053017;28;20010;-87
2022/01/09 12:18:27;;;;;;;;;;;1.60;99.90;;;;;;5052347;28;20088;-87
2022/01/09 12:20:53;;;;;;;48.38;20.90;;;1.60;99.90;;;;;;5045629;28;19908;-87
2022/01/09 12:23:22;;;;;;;42.15;19.50;;;1.80;99.90;;;;;;5028367;28;20101;-88
2022/01/09 12:25:50;;;;;;;46.33;19.80;;;1.80;99.90;;;;;;5042867;28;20033;-84
2022/01/09 12:28:25;;;;;;;40.83;19.20;;;2.00;99.90;;;;;;5047228;28;20025;-89
2022/01/09 12:30:57;;;;;;;43.97;20.70;;;2.10;99.90;;;;;;5029472;28;20061;-84
2022/01/09 12:33:28;;;;;;;45.17;20.73;;;2.40;99.90;;;;;;5043320;28;20040;-89
2022/01/09 12:35:56;;;;;;;48.33;20.88;;;2.50;99.90;;;;;;5049888;28;20033;-86
2022/01/09 12:38:25;;;;;;;39.33;19.88;;;2.70;99.90;;;;;;5029679;28;20401;-89
2022/01/09 12:41:01;;;;;;;42.25;19.48;;;2.90;99.90;;;;;;5031909;28;20125;-83